Staunton, IN (47881)

2:47 PM EST on February 14, 2016 (GMT -0500)
GUITAR LAKE | | Change Station
CLOSE
Current Station
Personal Weather Station
Location: BRAZIL, IN
Elevation: 650 ft
Nearby Weather Stations
Active Advisory: Winter Weather Advisory

Elev 650 ft 39.48 °N, 87.17 °W | Updated 4 seconds ago

Snow
Snow
18.0 °F
Feels Like 12 °F
N
3.8
Wind Variable Wind from South
Gusts 6.9 mph

Today
High -- | Low -- °F
--% Chance of Precip.
Yesterday
High -- | Low -- °F
Precip. -- in
Pressure 30.15 in
Visibility 0.2 miles
Clouds
Windchill 12 °F
Dew Point 11 °F
Humidity 75%
Rainfall 0.00 in
Snow Depth Not available.
7:42 AM 6:23 PM
Waxing Crescent, 44% visible
SPECI KHUF 141908Z 13014KT 1/4SM R05/1800V3000FT +SN FZFG VV009 M07/M09 A3015 RMK AO2 PRESFR P0000 T10721094
Pressure 30.15 in
Visibility 0.2 miles
Clouds
Windchill 12 °F
Dew Point 11 °F
Humidity 75%
Rainfall 0.00 in
Snow Depth Not available.
7:42 AM 6:23 PM
Waxing Crescent, 44% visible
SPECI KHUF 141908Z 13014KT 1/4SM R05/1800V3000FT +SN FZFG VV009 M07/M09 A3015 RMK AO2 PRESFR P0000 T10721094

10-Day Weather Forecast

Almanac

Astronomy

Feb. 14, 2016 Rise Set
Actual Time
Civil Twilight
Nautical Twilight
Astronomical Twilight
Moon
Length of Visible Light
Length of Day
Tomorrow will be .
, % of the Moon is Illuminated

Today's Extremes

State Highs State Lows

Community

WunderPhotos

Upload Photos

1,892,879 photos uploaded!

WunderBlog® & News

Nearby

Air Quality

  Air Quality AQ Index Pollutant
Not available.

Snow Depth

Station Depth Elevation

Earthquake Activity

City Distance Mag. Time & Date
Minimum magnitude displayed is 2.5.

Coastal Water Temperatures

Place Temperature

Stations

Nearby Weather Stations

Station Location Temp. Windchill Dew Point Humidity Wind Precip. Elev Updated Type
                   

Watches & Warnings

Winter Weather Advisory
Issued: 10:19 AM EST Feb. 14, 2016 – National Weather Service

... Winter Weather Advisory remains in effect until midnight EST
tonight...

* timing... heaviest snow is expected from noon to 5 PM.

* Main impact... snow accumulations of 2 to 4 inches are expected
with isolated higher amounts possible.

Precautionary/preparedness actions...

A Winter Weather Advisory for snow means that periods of snow
will cause primarily travel difficulties. Be prepared for snow
covered roads and limited visibilities... and use caution while
driving.



Cp